Time;durP1;ratioP1;P1;durP2;ratioP2;P2;SDS_P1;SDS_P2;PMS_P1;PMS_P2;Temp;Humidity;BMP_temperature;BMP_pressure;BME280_temperature;BME280_humidity;BME280_pressure;Samples;Min_cycle;Max_cycle;Signal;HPM_P1;HPM_P2
2022/08/19 00:01:56;;;;;;;8.57;4.68;;;;;;;20.99;100.00;99149.50;5152573;27;20146;-53
2022/08/19 00:04:26;;;;;;;12.13;5.18;;;;;;;20.88;100.00;99156.13;5152507;27;20058;-54
2022/08/19 00:06:53;;;;;;;12.38;5.22;;;;;;;20.84;100.00;99188.09;5152433;27;20046;-54
2022/08/19 00:09:21;;;;;;;9.85;4.93;;;;;;;20.76;100.00;99200.59;5151300;27;20141;-54
2022/08/19 00:11:48;;;;;;;10.93;4.55;;;;;;;20.71;100.00;99228.97;5152310;27;20115;-52
2022/08/19 00:14:16;;;;;;;7.60;5.25;;;;;;;20.52;100.00;99259.22;5152278;27;20053;-53
2022/08/19 00:16:45;;;;;;;8.88;4.68;;;;;;;20.51;100.00;99281.94;5152537;27;20083;-52
2022/08/19 00:19:11;;;;;;;6.45;4.88;;;;;;;20.57;100.00;99294.16;5152192;27;20091;-51
2022/08/19 00:21:39;;;;;;;8.20;5.32;;;;;;;20.42;100.00;99305.53;5152334;27;20050;-52
2022/08/19 00:24:07;;;;;;;7.35;5.57;;;;;;;20.41;100.00;99340.16;5152165;27;20141;-53
2022/08/19 00:26:33;;;;;;;10.50;5.32;;;;;;;20.12;100.00;99345.47;5152355;27;20055;-53
2022/08/19 00:29:00;;;;;;;7.55;5.18;;;;;;;20.30;100.00;99384.13;5152319;27;20051;-52
2022/08/19 00:31:27;;;;;;;15.65;5.43;;;;;;;20.28;100.00;99396.91;5152043;27;20047;-51
2022/08/19 00:33:54;;;;;;;8.73;5.70;;;;;;;20.32;100.00;99397.63;5152113;27;20406;-51
2022/08/19 00:36:21;;;;;;;9.98;5.97;;;;;;;20.30;100.00;99391.69;5152085;27;20058;-54
2022/08/19 00:38:47;;;;;;;9.15;6.00;;;;;;;20.29;100.00;99399.25;5151945;27;20557;-53
2022/08/19 00:41:15;;;;;;;13.15;5.78;;;;;;;20.29;100.00;99424.28;5151816;27;20164;-54
2022/08/19 00:43:41;;;;;;;14.20;5.68;;;;;;;20.21;100.00;99425.66;5152337;27;20473;-54
2022/08/19 00:46:07;;;;;;;12.60;7.70;;;;;;;20.13;100.00;99447.25;5152047;27;20085;-52
2022/08/19 00:48:35;;;;;;;14.98;7.68;;;;;;;20.09;100.00;99459.63;5151944;27;20050;-54
2022/08/19 00:51:05;;;;;;;11.85;8.23;;;;;;;19.97;100.00;99498.00;5151690;27;20104;-50
2022/08/19 00:53:33;;;;;;;11.88;6.25;;;;;;;20.02;100.00;99507.06;5151655;27;20135;-50
2022/08/19 00:56:03;;;;;;;13.63;6.15;;;;;;;19.92;100.00;99512.34;5151902;27;20046;-54
2022/08/19 00:58:32;;;;;;;17.48;7.00;;;;;;;19.93;100.00;99527.88;5151831;27;20137;-50
2022/08/19 01:00:59;;;;;;;11.52;8.35;;;;;;;19.81;100.00;99530.44;5152035;27;20066;-53
2022/08/19 01:03:25;;;;;;;11.20;5.82;;;;;;;19.65;100.00;99550.50;5151507;27;20055;-51
2022/08/19 01:05:54;;;;;;;16.90;8.48;;;;;;;19.69;100.00;99557.63;5151499;27;20133;-54
2022/08/19 01:08:21;;;;;;;11.20;7.93;;;;;;;19.66;100.00;99571.53;5151423;27;20046;-53
2022/08/19 01:10:51;;;;;;;11.77;6.25;;;;;;;19.55;100.00;99577.22;5151669;27;20057;-51
2022/08/19 01:13:19;;;;;;;11.15;6.50;;;;;;;19.59;100.00;99583.50;5151445;27;20055;-53
2022/08/19 01:15:49;;;;;;;11.05;7.78;;;;;;;19.48;100.00;99597.53;5151776;27;20405;-53
2022/08/19 01:18:18;;;;;;;15.43;8.63;;;;;;;19.53;100.00;99599.09;5151297;27;20187;-53
2022/08/19 01:20:44;;;;;;;11.02;6.47;;;;;;;19.52;100.00;99597.50;5151280;27;20475;-52
2022/08/19 01:23:12;;;;;;;9.63;6.50;;;;;;;19.52;100.00;99609.41;5151380;27;20498;-54
2022/08/19 01:25:43;;;;;;;13.00;6.70;;;;;;;19.60;100.00;99603.78;5151258;27;20047;-52
2022/08/19 01:28:15;;;;;;;14.13;6.90;;;;;;;19.57;100.00;99599.06;5151294;27;20055;-50
2022/08/19 01:30:43;;;;;;;13.38;8.80;;;;;;;19.52;100.00;99603.84;5151096;27;20521;-52
2022/08/19 01:33:09;;;;;;;7.63;5.88;;;;;;;19.46;100.00;99608.31;5151278;27;20129;-52
2022/08/19 01:35:36;;;;;;;11.68;7.57;;;;;;;19.51;100.00;99624.53;5151169;27;20046;-51
2022/08/19 01:38:07;;;;;;;13.18;6.00;;;;;;;19.42;100.00;99621.44;5151396;27;20599;-55
2022/08/19 01:40:38;;;;;;;11.77;7.10;;;;;;;19.37;100.00;99632.25;5151242;27;20074;-54
2022/08/19 01:43:05;;;;;;;16.05;7.07;;;;;;;19.36;100.00;99638.97;5151180;27;20050;-50
2022/08/19 01:45:33;;;;;;;15.00;7.13;;;;;;;19.31;100.00;99650.56;5151019;27;20050;-51
2022/08/19 01:48:00;;;;;;;11.68;7.00;;;;;;;19.28;100.00;99658.53;5151284;27;20138;-51
2022/08/19 01:50:27;;;;;;;13.82;6.80;;;;;;;19.27;100.00;99662.50;5150971;27;20092;-52
2022/08/19 01:52:53;;;;;;;11.75;9.00;;;;;;;19.19;100.00;99662.97;5151041;27;20046;-53
2022/08/19 01:55:23;;;;;;;22.23;7.53;;;;;;;19.30;100.00;99660.13;5150924;27;20111;-53
2022/08/19 01:57:55;;;;;;;14.57;9.63;;;;;;;19.10;100.00;99660.69;5150926;27;20057;-50
2022/08/19 02:00:24;;;;;;;11.85;9.20;;;;;;;19.25;100.00;99655.78;5150867;27;20051;-53
2022/08/19 02:02:50;;;;;;;8.30;6.82;;;;;;;19.39;100.00;99657.63;5151157;27;20046;-50
2022/08/19 02:05:18;;;;;;;14.80;6.53;;;;;;;19.31;100.00;99664.47;5150998;27;20047;-52
2022/08/19 02:07:45;;;;;;;17.50;9.00;;;;;;;19.38;100.00;99661.59;5150931;27;20536;-54
2022/08/19 02:10:14;;;;;;;11.32;8.55;;;;;;;19.38;100.00;99672.72;5151077;27;20421;-52
2022/08/19 02:12:40;;;;;;;12.70;7.30;;;;;;;19.40;100.00;99679.47;5150966;27;20047;-53
2022/08/19 02:15:08;;;;;;;9.90;6.78;;;;;;;19.39;100.00;99666.78;5151186;27;20053;-53
2022/08/19 02:17:36;;;;;;;11.57;8.73;;;;;;;19.39;100.00;99668.75;5150900;27;20095;-51
2022/08/19 02:20:03;;;;;;;13.88;6.78;;;;;;;19.30;100.00;99671.25;5150929;27;20053;-52
2022/08/19 02:22:30;;;;;;;12.20;7.50;;;;;;;19.33;100.00;99668.41;5150559;27;20051;-54
2022/08/19 02:24:56;;;;;;;12.30;9.32;;;;;;;19.24;100.00;99676.44;5150554;27;20462;-53
2022/08/19 02:27:23;;;;;;;16.13;9.70;;;;;;;19.04;100.00;99665.88;5150690;27;20054;-54
2022/08/19 02:29:50;;;;;;;17.10;6.55;;;;;;;19.04;100.00;99662.31;5150695;27;20078;-53
2022/08/19 02:32:19;;;;;;;12.00;8.20;;;;;;;18.92;100.00;99658.03;5152620;27;20047;-51
2022/08/19 02:34:45;;;;;;;16.60;9.27;;;;;;;19.09;100.00;99655.53;5154041;27;20051;-53
2022/08/19 02:39:53;;;;;;;9.90;6.80;;;;;;;19.00;100.00;99647.69;5153080;27;20062;-54
2022/08/19 02:42:19;;;;;;;17.23;6.85;;;;;;;19.14;100.00;99641.97;5154134;27;20141;-49
2022/08/19 02:44:45;;;;;;;10.43;6.82;;;;;;;19.20;100.00;99651.47;5153853;27;20517;-53
2022/08/19 02:47:14;;;;;;;11.55;7.45;;;;;;;19.03;100.00;99661.53;5153854;27;20073;-52
2022/08/19 02:49:41;;;;;;;14.88;9.30;;;;;;;19.06;100.00;99654.38;5153722;27;20134;-53
2022/08/19 02:52:07;;;;;;;16.75;9.30;;;;;;;19.14;100.00;99655.88;5153586;27;20046;-54
2022/08/19 02:54:34;;;;;;;9.13;6.70;;;;;;;19.10;100.00;99654.34;5153707;27;20051;-53
2022/08/19 02:57:00;;;;;;;18.83;9.45;;;;;;;19.09;100.00;99653.53;5154100;27;20065;-52
2022/08/19 02:59:31;;;;;;;14.80;10.18;;;;;;;18.93;100.00;99659.66;5153737;27;20106;-52
2022/08/19 03:01:57;;;;;;;15.43;6.78;;;;;;;19.12;100.00;99661.06;5153907;27;20057;-53
2022/08/19 03:04:24;;;;;;;10.77;6.97;;;;;;;19.03;100.00;99658.75;5154064;27;20421;-52
2022/08/19 03:06:51;;;;;;;11.00;6.72;;;;;;;19.08;100.00;99663.06;5153586;27;20051;-51
2022/08/19 03:09:19;;;;;;;12.93;6.78;;;;;;;19.03;100.00;99678.22;5153585;27;20054;-54
2022/08/19 03:11:46;;;;;;;12.50;6.80;;;;;;;19.10;100.00;99673.78;5153465;27;20047;-51
2022/08/19 03:14:13;;;;;;;13.38;7.20;;;;;;;19.16;100.00;99689.63;5153516;27;20053;-52
2022/08/19 03:16:42;;;;;;;11.52;9.77;;;;;;;19.30;100.00;99694.25;5153572;27;20051;-50
2022/08/19 03:19:08;;;;;;;14.55;9.15;;;;;;;19.24;100.00;99698.69;5153514;27;20050;-53
2022/08/19 03:21:35;;;;;;;20.38;8.30;;;;;;;19.19;100.00;99704.66;5153482;27;20046;-53
2022/08/19 03:24:04;;;;;;;13.38;9.85;;;;;;;19.51;100.00;99701.59;5153417;27;20043;-52
2022/08/19 03:26:31;;;;;;;13.52;6.97;;;;;;;19.39;100.00;99714.03;5153682;27;20158;-51
2022/08/19 03:28:57;;;;;;;10.23;6.55;;;;;;;19.58;100.00;99709.09;5153589;27;20550;-54
2022/08/19 03:31:26;;;;;;;12.65;8.13;;;;;;;19.67;100.00;99721.34;5153915;27;20557;-51
2022/08/19 03:33:52;;;;;;;11.93;6.40;;;;;;;19.87;100.00;99704.03;5153546;27;20134;-50
2022/08/19 03:36:22;;;;;;;17.05;6.85;;;;;;;20.22;100.00;99695.25;5153457;27;20049;-54
2022/08/19 03:38:51;;;;;;;15.82;6.40;;;;;;;20.83;100.00;99610.06;5153180;27;20081;-52
2022/08/19 03:41:20;;;;;;;12.38;6.28;;;;;;;21.01;100.00;99476.72;5153070;27;20133;-53
2022/08/19 03:43:48;;;;;;;11.68;7.20;;;;;;;21.30;100.00;99371.00;5152970;27;20081;-54
2022/08/19 03:46:17;;;;;;;13.15;6.80;;;;;;;21.63;100.00;99216.84;5152841;27;20086;-54
2022/08/19 03:48:44;;;;;;;14.57;6.57;;;;;;;21.92;100.00;99066.13;5152795;27;20051;-54
2022/08/19 03:51:17;;;;;;;15.40;7.00;;;;;;;22.08;100.00;98930.03;5152840;27;20141;-53
2022/08/19 03:53:43;;;;;;;13.18;6.47;;;;;;;21.98;100.00;98866.19;5152649;27;20093;-51
2022/08/19 03:56:10;;;;;;;11.70;7.82;;;;;;;22.16;100.00;98872.00;5152646;27;20093;-53
2022/08/19 03:58:37;;;;;;;12.73;7.30;;;;;;;22.67;100.00;98692.22;5152960;27;20394;-51
2022/08/19 04:01:08;;;;;;;8.10;5.72;;;;;;;23.01;100.00;98591.44;5152556;27;20054;-52
2022/08/19 04:03:35;;;;;;;13.48;6.22;;;;;;;23.29;100.00;98485.19;5152886;27;20072;-51
2022/08/19 04:06:10;;;;;;;13.38;6.20;;;;;;;22.92;100.00;98535.47;5152777;27;20051;-51
2022/08/19 04:08:36;;;;;;;7.78;5.95;;;;;;;23.27;100.00;98479.28;5152448;27;20080;-54
2022/08/19 04:11:07;;;;;;;10.50;6.03;;;;;;;23.20;100.00;98451.66;5152535;27;20054;-53
2022/08/19 04:13:34;;;;;;;12.77;5.85;;;;;;;23.28;100.00;98421.34;5152600;27;20055;-53
2022/08/19 04:16:01;;;;;;;19.10;7.75;;;;;;;23.33;100.00;98357.19;5152351;27;20047;-51
2022/08/19 04:18:29;;;;;;;10.35;6.00;;;;;;;23.64;100.00;98319.75;5152296;27;20056;-52
2022/08/19 04:20:56;;;;;;;11.77;6.03;;;;;;;24.00;100.00;98318.03;5152196;27;20050;-53
2022/08/19 04:23:23;;;;;;;13.05;7.28;;;;;;;24.00;100.00;98338.38;5152409;27;20211;-54
2022/08/19 04:25:49;;;;;;;10.63;5.85;;;;;;;24.12;100.00;98298.16;5152579;27;20521;-52
2022/08/19 04:28:16;;;;;;;17.33;7.78;;;;;;;24.18;100.00;98293.44;5151910;27;20509;-53
2022/08/19 04:30:45;;;;;;;17.50;7.65;;;;;;;24.10;100.00;98286.69;5152296;27;20042;-54
2022/08/19 04:33:15;;;;;;;8.00;5.82;;;;;;;24.62;100.00;98287.19;5152289;27;20058;-55
2022/08/19 04:35:46;;;;;;;12.90;7.75;;;;;;;24.77;100.00;98286.44;5152192;27;20462;-55
2022/08/19 04:38:14;;;;;;;13.35;7.60;;;;;;;25.08;100.00;98292.31;5152021;27;20111;-55
2022/08/19 04:43:27;;;;;;;12.02;7.90;;;;;;;24.31;100.00;98281.22;5152344;27;20404;-55
2022/08/19 04:45:53;;;;;;;9.90;7.70;;;;;;;24.48;100.00;98273.94;5151929;27;20142;-54
2022/08/19 04:48:25;;;;;;;13.82;7.78;;;;;;;25.00;100.00;98298.81;5151717;27;20047;-55
2022/08/19 04:50:57;;;;;;;12.57;7.60;;;;;;;25.14;100.00;98326.09;5152002;27;20054;-55
2022/08/19 04:53:24;;;;;;;9.27;6.70;;;;;;;25.50;100.00;98305.25;5152033;27;20046;-55
2022/08/19 04:55:50;;;;;;;8.85;7.13;;;;;;;26.02;100.00;98358.06;5151120;27;20058;-56
2022/08/19 04:58:17;;;;;;;10.88;7.03;;;;;;;26.31;100.00;98362.78;5151698;27;20141;-55
2022/08/19 05:00:43;;;;;;;13.70;7.70;;;;;;;26.39;100.00;98377.97;5151572;27;20425;-57
2022/08/19 05:03:10;;;;;;;13.55;7.53;;;;;;;25.66;100.00;98357.28;5151658;27;20069;-55
2022/08/19 05:05:40;;;;;;;9.45;6.97;;;;;;;25.51;100.00;98325.66;5151770;27;20079;-55
2022/08/19 05:08:07;;;;;;;14.18;7.65;;;;;;;25.59;100.00;98316.34;5151661;27;20501;-56
2022/08/19 05:10:35;;;;;;;11.07;8.60;;;;;;;25.83;100.00;98339.94;5151713;27;20062;-57
2022/08/19 05:13:02;;;;;;;12.90;8.05;;;;;;;26.39;100.00;98349.06;5151456;27;20051;-55
2022/08/19 05:15:28;;;;;;;12.55;8.23;;;;;;;26.67;100.00;98394.41;5151386;27;20050;-56
2022/08/19 05:23:23;;;;;;;17.15;8.13;;;;;;;26.02;100.00;98392.56;5151868;27;20077;-56
2022/08/19 05:25:50;;;;;;;11.23;8.00;;;;;;;26.39;100.00;98419.31;5151487;27;20087;-55
2022/08/19 05:28:17;;;;;;;11.25;8.13;;;;;;;27.65;100.00;98450.66;5151384;27;20061;-56
2022/08/19 05:30:44;;;;;;;11.23;6.00;;;;;;;27.63;100.00;98605.28;5151203;27;20107;-57
2022/08/19 05:33:11;;;;;;;13.93;7.30;;;;;;;28.36;100.00;98619.31;5151431;27;20089;-56
2022/08/19 05:35:37;;;;;;;14.65;7.05;;;;;;;28.17;100.00;98589.94;5151076;27;20618;-60
2022/08/19 05:38:05;;;;;;;12.15;7.72;;;;;;;28.63;100.00;98589.03;5151251;27;20058;-60
2022/08/19 05:40:31;;;;;;;11.55;7.68;;;;;;;28.11;100.00;98572.97;5150972;27;20506;-59
2022/08/19 05:42:57;;;;;;;13.43;7.93;;;;;;;28.74;100.00;98623.72;5150972;27;20145;-57
2022/08/19 05:45:24;;;;;;;13.38;8.00;;;;;;;29.09;100.00;98639.63;5150927;27;20050;-60
2022/08/19 05:47:50;;;;;;;19.38;7.57;;;;;;;29.22;100.00;98639.16;5151014;27;20193;-57
2022/08/19 05:50:17;;;;;;;11.07;7.25;;;;;;;28.83;100.00;98642.50;5151178;27;20054;-57
2022/08/19 05:52:43;;;;;;;15.75;8.18;;;;;;;28.62;100.00;98636.19;5150958;27;20051;-54
2022/08/19 05:55:10;;;;;;;15.50;8.93;;;;;;;28.32;100.00;98627.19;5151163;27;20398;-57
2022/08/19 05:57:37;;;;;;;18.70;7.78;;;;;;;28.26;100.00;98582.06;5150259;27;20406;-58
2022/08/19 06:00:08;;;;;;;18.58;8.18;;;;;;;27.85;100.00;98610.38;5151274;27;20050;-58
2022/08/19 06:02:35;;;;;;;13.25;8.50;;;;;;;28.44;100.00;98626.06;5150531;27;20505;-55
2022/08/19 06:05:02;;;;;;;11.70;8.25;;;;;;;27.84;100.00;98588.34;5150892;27;20051;-55
2022/08/19 06:07:28;;;;;;;14.82;8.43;;;;;;;27.47;100.00;98588.97;5152644;27;20563;-58
2022/08/19 06:09:55;;;;;;;13.77;8.70;;;;;;;28.10;100.00;98597.56;5154289;27;20057;-60
2022/08/19 06:12:26;;;;;;;16.73;9.45;;;;;;;28.81;100.00;98639.41;5154440;27;20050;-57
2022/08/19 06:14:54;;;;;;;13.65;8.93;;;;;;;28.90;100.00;98622.28;5154309;27;20050;-59
2022/08/19 06:17:20;;;;;;;13.70;8.90;;;;;;;29.10;100.00;98621.41;5154461;27;20429;-62
2022/08/19 06:19:47;;;;;;;12.60;8.85;;;;;;;29.14;100.00;98664.25;5154255;27;20566;-59
2022/08/19 06:22:13;;;;;;;15.13;8.57;;;;;;;28.56;100.00;98638.22;5154707;27;20046;-61
2022/08/19 06:24:39;;;;;;;11.95;8.70;;;;;;;29.26;100.00;98671.53;5154249;27;20613;-60
2022/08/19 06:27:05;;;;;;;13.43;8.63;;;;;;;30.17;100.00;98709.38;5154539;27;20042;-60
2022/08/19 06:29:33;;;;;;;16.08;8.88;;;;;;;28.74;100.00;98665.25;5154054;27;20429;-60
2022/08/19 06:32:00;;;;;;;26.13;9.55;;;;;;;30.27;100.00;98676.78;5154311;27;20050;-59
2022/08/19 06:34:29;;;;;;;16.35;8.38;;;;;;;29.76;100.00;98729.56;5154363;27;20425;-55
2022/08/19 06:36:56;;;;;;;16.38;8.55;;;;;;;31.01;100.00;98760.44;5154119;27;20364;-57
2022/08/19 06:39:25;;;;;;;14.15;8.50;;;;;;;30.78;100.00;98770.97;5153910;27;20050;-56
2022/08/19 06:41:53;;;;;;;16.02;9.15;;;;;;;31.10;100.00;98763.00;5153286;27;20455;-56
2022/08/19 06:44:20;;;;;;;12.43;8.07;;;;;;;31.58;100.00;98786.63;5153652;27;20058;-61
2022/08/19 06:46:48;;;;;;;13.68;8.40;;;;;;;30.76;100.00;98807.50;5153705;27;20551;-59
2022/08/19 06:49:15;;;;;;;9.30;7.95;;;;;;;30.46;100.00;98795.84;5153916;27;20047;-61
2022/08/19 06:51:42;;;;;;;13.13;8.00;;;;;;;29.52;100.00;98773.06;5153627;27;20046;-61
2022/08/19 06:54:09;;;;;;;13.63;7.90;;;;;;;31.19;100.00;98793.13;5153713;27;20091;-61
2022/08/19 06:56:36;;;;;;;18.27;8.93;;;;;;;30.56;100.00;98753.97;5153493;27;20059;-50
2022/08/19 06:59:04;;;;;;;12.82;7.97;;;;;;;30.66;100.00;98789.22;5153728;27;20145;-53
2022/08/19 07:01:33;;;;;;;17.48;7.97;;;;;;;30.47;100.00;98805.88;5153373;27;20050;-50
2022/08/19 07:04:01;;;;;;;18.40;7.78;;;;;;;31.78;100.00;98822.41;5153337;27;20047;-53
2022/08/19 07:06:27;;;;;;;16.55;6.95;;;;;;;30.39;100.00;98827.44;5153424;27;20046;-53
2022/08/19 07:08:53;;;;;;;13.50;6.57;;;;;;;29.50;100.00;98825.69;5153397;27;20051;-49
2022/08/19 07:11:20;;;;;;;10.82;6.22;;;;;;;29.64;100.00;98796.50;5153533;27;20046;-51
2022/08/19 07:13:48;;;;;;;11.45;6.35;;;;;;;31.16;100.00;98823.22;5153099;27;20540;-54
2022/08/19 07:16:17;;;;;;;10.57;6.05;;;;;;;30.05;100.00;98855.56;5153383;27;20062;-56
2022/08/19 07:18:44;;;;;;;13.20;5.90;;;;;;;29.12;100.00;98809.97;5152362;27;20149;-56
2022/08/19 07:21:13;;;;;;;13.57;6.80;;;;;;;30.70;100.00;98829.34;5153291;27;20051;-51
2022/08/19 07:23:39;;;;;;;13.75;6.10;;;;;;;31.20;100.00;98868.28;5153017;27;20103;-52
2022/08/19 07:26:07;;;;;;;11.15;6.10;;;;;;;31.73;100.00;98857.97;5153263;27;20062;-53
2022/08/19 07:28:33;;;;;;;12.23;6.30;;;;;;;32.28;100.00;98844.91;5152798;27;20047;-52
2022/08/19 07:31:03;;;;;;;14.15;6.38;;;;;;;32.37;100.00;98869.38;5152980;27;20114;-51
2022/08/19 07:33:32;;;;;;;15.57;6.07;;;;;;;30.95;100.00;98855.88;5152859;27;20058;-51
2022/08/19 07:36:01;;;;;;;21.48;6.10;;;;;;;31.38;100.00;98869.84;5153047;27;20092;-52
2022/08/19 07:38:28;;;;;;;11.32;5.30;;;;;;;30.65;100.00;98869.69;5152969;27;20108;-50
2022/08/19 07:40:55;;;;;;;5.25;4.55;;;;;;;31.18;100.00;98910.47;5152811;27;20133;-49
2022/08/19 07:43:25;;;;;;;15.02;4.68;;;;;;;31.60;100.00;98911.56;5152965;27;20042;-52
2022/08/19 07:45:51;;;;;;;17.05;3.80;;;;;;;30.99;100.00;98917.91;5152833;27;20467;-50
2022/08/19 07:48:18;;;;;;;6.50;4.25;;;;;;;30.77;100.00;98927.13;5153042;27;20050;-50
2022/08/19 07:50:46;;;;;;;11.18;4.10;;;;;;;30.15;100.00;98898.50;5152510;27;20095;-51
2022/08/19 07:53:12;;;;;;;9.95;4.15;;;;;;;31.12;100.00;98933.13;5153147;27;20043;-51
2022/08/19 07:55:39;;;;;;;6.43;3.60;;;;;;;30.55;100.00;98934.22;5152674;27;20070;-52
2022/08/19 07:58:05;;;;;;;9.85;3.90;;;;;;;32.07;100.00;98937.28;5152622;27;20053;-50
2022/08/19 08:00:32;;;;;;;8.95;4.07;;;;;;;31.11;100.00;98916.66;5152518;27;20391;-50
2022/08/19 08:02:58;;;;;;;7.90;4.40;;;;;;;31.16;100.00;98918.72;5152593;27;20125;-49
2022/08/19 08:10:54;;;;;;;6.75;4.38;;;;;;;32.44;100.00;98907.81;5152819;27;20053;-50
2022/08/19 08:13:20;;;;;;;12.88;4.55;;;;;;;32.80;100.00;98920.81;5152044;27;20471;-53
2022/08/19 08:15:46;;;;;;;9.93;4.68;;;;;;;32.90;100.00;98914.81;5152202;27;20053;-53
2022/08/19 08:18:13;;;;;;;11.07;4.82;;;;;;;32.48;100.00;98909.06;5152370;27;20056;-54
2022/08/19 08:20:39;;;;;;;14.75;4.70;;;;;;;31.92;100.00;98897.09;5152119;27;20050;-53
2022/08/19 08:23:25;;;;;;;10.95;4.65;;;;;;;32.43;100.00;98909.88;5152256;27;20391;-53
2022/08/19 08:25:52;;;;;;;19.05;5.10;;;;;;;33.10;100.00;98894.59;5152113;27;20520;-50
2022/08/19 08:28:20;;;;;;;9.18;4.57;;;;;;;32.26;100.00;98901.41;5152157;27;20554;-53
2022/08/19 08:30:48;;;;;;;9.25;4.45;;;;;;;33.21;100.00;98925.72;5150949;27;20046;-53
2022/08/19 08:33:17;;;;;;;10.10;4.40;;;;;;;32.84;100.00;98922.59;5151917;27;20051;-54
2022/08/19 08:35:45;;;;;;;8.35;4.00;;;;;;;32.98;100.00;98932.84;5151828;27;20095;-50
2022/08/19 08:38:12;;;;;;;11.15;4.38;;;;;;;32.91;100.00;98945.50;5152402;27;20058;-50
2022/08/19 08:40:49;;;;;;;12.50;4.25;;;;;;;32.83;100.00;98926.75;5151840;27;20050;-53
2022/08/19 08:43:26;;;;;;;8.48;3.78;;;;;;;33.30;100.00;98929.56;5152021;27;20051;-53
2022/08/19 08:45:58;;;;;;;9.15;3.72;;;;;;;32.26;100.00;98971.56;5152087;27;20053;-51
2022/08/19 08:48:36;;;;;;;11.05;3.45;;;;;;;32.19;100.00;98949.38;5151577;27;20058;-52
2022/08/19 08:51:07;;;;;;;11.90;3.67;;;;;;;32.97;100.00;98959.72;5151907;27;20238;-53
2022/08/19 08:53:35;;;;;;;10.05;3.92;;;;;;;32.97;100.00;98954.81;5151484;27;20553;-53
2022/08/19 08:56:06;;;;;;;9.95;4.20;;;;;;;32.83;100.00;98943.78;5151700;27;20047;-53
2022/08/19 08:58:45;;;;;;;8.18;4.03;;;;;;;32.24;100.00;98926.69;5151505;27;20432;-53
2022/08/19 09:01:12;;;;;;;16.38;4.30;;;;;;;33.07;100.00;98945.97;5151741;27;20131;-53
2022/08/19 09:03:45;;;;;;;8.27;3.85;;;;;;;31.84;100.00;98959.97;5151734;27;20179;-51
2022/08/19 09:06:16;;;;;;;9.15;4.20;;;;;;;31.09;100.00;98931.34;5151446;27;20095;-52
2022/08/19 09:08:49;;;;;;;8.02;3.83;;;;;;;30.70;100.00;98900.06;5151812;27;20394;-52
2022/08/19 09:11:22;;;;;;;10.98;3.70;;;;;;;30.67;100.00;98881.28;5151603;27;20108;-52
2022/08/19 09:14:02;;;;;;;10.85;4.28;;;;;;;30.89;100.00;98878.53;5151675;27;20545;-54
2022/08/19 09:16:30;;;;;;;15.35;4.00;;;;;;;30.98;100.00;98874.69;5151228;27;20089;-52
2022/08/19 09:19:01;;;;;;;7.35;3.78;;;;;;;30.61;100.00;98869.16;5151312;27;20054;-51
2022/08/19 09:21:27;;;;;;;8.85;4.22;;;;;;;31.03;100.00;98859.00;5151340;27;20099;-50
2022/08/19 09:23:53;;;;;;;14.13;4.35;;;;;;;31.02;100.00;98865.94;5151210;27;20053;-54
2022/08/19 09:26:22;;;;;;;10.18;4.10;;;;;;;30.58;100.00;98850.38;5151429;27;20051;-52
2022/08/19 09:28:52;;;;;;;10.40;4.43;;;;;;;30.58;100.00;98851.16;5150827;27;20562;-52
2022/08/19 09:31:21;;;;;;;6.57;3.78;;;;;;;31.12;100.00;98884.22;5150883;27;20053;-51
2022/08/19 09:33:49;;;;;;;9.68;3.65;;;;;;;31.43;100.00;98868.31;5151043;27;20047;-53
2022/08/19 09:36:18;;;;;;;11.05;4.45;;;;;;;31.84;100.00;98849.44;5151387;27;20050;-51
2022/08/19 09:38:45;;;;;;;9.73;4.68;;;;;;;32.08;100.00;98851.69;5150883;27;20050;-51
2022/08/19 09:41:13;;;;;;;7.85;3.72;;;;;;;31.63;100.00;98863.13;5152915;27;20057;-53
2022/08/19 09:43:40;;;;;;;6.85;3.72;;;;;;;31.29;100.00;98845.38;5154679;27;20053;-52
2022/08/19 09:46:09;;;;;;;8.73;4.18;;;;;;;30.90;100.00;98831.19;5154554;27;20054;-52
2022/08/19 09:48:35;;;;;;;10.70;3.90;;;;;;;31.17;100.00;98832.50;5154620;27;20050;-52
2022/08/19 09:51:04;;;;;;;11.32;4.43;;;;;;;30.85;100.00;98815.75;5154463;27;20135;-53
2022/08/19 09:53:30;;;;;;;8.10;4.22;;;;;;;31.06;100.00;98813.47;5154695;27;20048;-54
2022/08/19 09:55:57;;;;;;;8.23;4.22;;;;;;;31.78;100.00;98837.34;5154574;27;20046;-54
2022/08/19 09:58:27;;;;;;;13.10;4.82;;;;;;;31.64;100.00;98836.34;5154448;27;20102;-53
2022/08/19 10:00:54;;;;;;;13.32;4.78;;;;;;;31.69;100.00;98826.28;5154436;27;20054;-53
2022/08/19 10:03:21;;;;;;;8.75;4.03;;;;;;;31.24;100.00;98820.66;5154808;27;20043;-51
2022/08/19 10:05:50;;;;;;;9.70;4.32;;;;;;;31.77;100.00;98818.78;5154170;27;20118;-53
2022/08/19 10:08:18;;;;;;;8.65;4.57;;;;;;;31.69;100.00;98794.31;5154270;27;20089;-52
2022/08/19 10:10:46;;;;;;;13.65;4.93;;;;;;;31.13;100.00;98790.28;5154548;27;20098;-51
2022/08/19 10:13:13;;;;;;;11.65;4.90;;;;;;;31.70;100.00;98825.00;5154387;27;20568;-50
2022/08/19 10:15:40;;;;;;;9.52;4.60;;;;;;;31.49;100.00;98782.03;5154474;27;20042;-55
2022/08/19 10:18:07;;;;;;;10.43;4.70;;;;;;;31.34;100.00;98773.03;5154427;27;20046;-50
2022/08/19 10:20:35;;;;;;;10.13;4.88;;;;;;;31.45;100.00;98798.50;5154468;27;20074;-50
2022/08/19 10:23:01;;;;;;;8.82;4.00;;;;;;;30.93;100.00;98799.03;5154497;27;20110;-51
2022/08/19 10:25:27;;;;;;;8.30;3.95;;;;;;;30.36;100.00;98805.84;5154241;27;20046;-51
2022/08/19 10:27:54;;;;;;;11.43;4.68;;;;;;;30.60;100.00;98788.44;5154054;27;20050;-57
2022/08/19 10:30:21;;;;;;;10.43;4.63;;;;;;;29.92;100.00;98756.31;5154237;27;20046;-56
2022/08/19 10:32:47;;;;;;;10.82;4.85;;;;;;;29.88;100.00;98724.72;5154016;27;20110;-56
2022/08/19 10:35:14;;;;;;;9.38;4.25;;;;;;;29.41;100.00;98719.34;5154205;27;20055;-52
2022/08/19 10:37:42;;;;;;;17.75;4.72;;;;;;;29.74;100.00;98746.22;5154189;27;20128;-54
2022/08/19 10:40:11;;;;;;;12.60;4.93;;;;;;;29.33;100.00;98709.03;5154014;27;20050;-50
2022/08/19 10:42:37;;;;;;;8.98;4.53;;;;;;;28.81;100.00;98702.22;5154488;27;20344;-55
2022/08/19 10:45:06;;;;;;;10.98;4.55;;;;;;;29.04;100.00;98713.72;5154019;27;20042;-54
2022/08/19 10:47:33;;;;;;;14.43;4.65;;;;;;;29.34;100.00;98697.22;5154159;27;20078;-53
2022/08/19 10:52:46;;;;;;;9.75;4.25;;;;;;;28.93;100.00;98696.69;5153071;27;20412;-56
2022/08/19 10:57:57;;;;;;;9.00;4.88;;;;;;;29.84;100.00;98671.28;5153608;27;20570;-53
2022/08/19 11:00:25;;;;;;;10.75;4.97;;;;;;;29.84;100.00;98730.59;5153647;27;20051;-57
2022/08/19 11:02:52;;;;;;;9.95;4.55;;;;;;;29.85;100.00;98728.56;5153433;27;20047;-57
2022/08/19 11:05:19;;;;;;;12.57;4.40;;;;;;;29.93;100.00;98741.69;5153757;27;20078;-57
2022/08/19 11:07:46;;;;;;;19.00;4.93;;;;;;;29.76;100.00;98749.34;5153248;27;20046;-57
2022/08/19 11:10:14;;;;;;;10.57;4.35;;;;;;;29.27;100.00;98715.41;5153697;27;20443;-55
2022/08/19 11:12:41;;;;;;;10.25;5.47;;;;;;;29.23;100.00;98697.94;5153226;27;20171;-54
2022/08/19 11:15:10;;;;;;;15.52;5.10;;;;;;;28.76;100.00;98717.09;5153595;27;20050;-54
2022/08/19 11:17:40;;;;;;;11.77;4.40;;;;;;;28.80;100.00;98691.47;5153462;27;20047;-57
2022/08/19 11:20:08;;;;;;;14.50;4.75;;;;;;;28.56;100.00;98728.44;5153217;27;20047;-52
2022/08/19 11:22:34;;;;;;;14.98;5.05;;;;;;;28.45;100.00;98691.66;5153108;27;20174;-55
2022/08/19 11:25:02;;;;;;;11.80;4.65;;;;;;;28.26;100.00;98708.13;5153058;27;20520;-55
2022/08/19 11:27:28;;;;;;;16.95;5.07;;;;;;;28.36;100.00;98703.88;5153353;27;20437;-55
2022/08/19 11:29:57;;;;;;;11.88;4.55;;;;;;;28.24;100.00;98713.50;5153069;27;20508;-52
2022/08/19 11:32:23;;;;;;;8.35;4.72;;;;;;;28.38;100.00;98707.72;5153385;27;20050;-55
2022/08/19 11:34:49;;;;;;;18.02;4.90;;;;;;;28.29;100.00;98691.00;5153118;27;20063;-54
2022/08/19 11:37:15;;;;;;;18.15;4.63;;;;;;;28.27;100.00;98670.22;5153187;27;20046;-56
2022/08/19 11:39:41;;;;;;;20.80;5.75;;;;;;;28.24;100.00;98671.97;5153125;27;20050;-54
2022/08/19 11:44:49;;;;;;;16.27;4.80;;;;;;;28.36;100.00;98732.06;5151926;27;20077;-55
2022/08/19 11:47:16;;;;;;;8.60;4.05;;;;;;;28.38;100.00;98721.81;5152735;27;20053;-54